Flight Track Log - Related Links

Times and Time Zones

All times are in EDT time to prevent confusion due to time zone crossing. See the SKW5646 flight status page for this flight to view local times or setup timezone preferences in your user account.

Time Position Orientation Groundspeed Altitude Reporting Facility
EDT Latitude Longitude Course Direction KTS MPH feet Rate Location/Type
Wed 01:49:07 PM 37.6333 -122.3667 208° Southwest 140 161 1,000  Level Northern Cal TRACON
Wed 01:50:07 PM 37.6833 -122.3667 360° North 182 209 2,500 1,400 Climbing Northern Cal TRACON
Wed 01:51:07 PM 37.7000 -122.4333 288° West 203 234 3,800 1,350 Climbing Northern Cal TRACON
Wed 01:52:00 PM 37.5037 -122.4481 202° Southwest  Level FlightAware Approximate
Wed 01:52:07 PM 37.7000 -122.5000 270° West 222 255 5,200  Level Northern Cal TRACON
Wed 01:53:00 PM 37.4232 -122.4833 180° South  Level FlightAware Approximate
Wed 01:53:07 PM 37.6333 -122.5167 191° South 230 265 6,300  Level Northern Cal TRACON
Wed 01:54:00 PM 37.3415 -122.5223 208° Southwest  Level FlightAware Approximate
Wed 01:54:07 PM 37.5833 -122.5167 180° South 226 260 7,900  Level Northern Cal TRACON
Wed 01:55:07 PM 37.5167 -122.5333 191° South 220 253 9,400 1,300 Climbing Northern Cal TRACON
Wed 01:56:07 PM 37.4500 -122.5500 191° South 230 265 10,500 1,200 Climbing Northern Cal TRACON
Wed 01:57:07 PM 37.3833 -122.5333 169° South 232 267 11,800 1,120 Climbing Northern Cal TRACON
Wed 01:57:22 PM 37.3831 -122.5400 267° West 240 276 11,900 1,091 Climbing Oakland Center
Wed 01:58:24 PM 37.3100 -122.5144 164° South 232 267 13,200 1,122 Climbing Oakland Center
Wed 01:59:25 PM 37.2486 -122.4942 165° South 230 265 14,200 976 Climbing Oakland Center
Wed 02:00:27 PM 37.1878 -122.4733 165° South 227 261 15,200 976 Climbing Oakland Center
Wed 02:01:28 PM 37.1247 -122.4547 167° South 233 268 16,200 927 Climbing Oakland Center
Wed 02:02:30 PM 37.0656 -122.4211 156° South 243 280 17,100 829 Climbing Oakland Center
Wed 02:03:31 PM 37.0147 -122.3783 146° Southeast 226 260 17,900 780 Climbing Oakland Center
Wed 02:04:33 PM 36.9592 -122.3394 151° Southeast 230 265 18,700 780 Climbing Oakland Center
Wed 02:05:34 PM 36.9036 -122.2969 149° Southeast 234 269 19,500 780 Climbing Oakland Center
Wed 02:06:36 PM 36.8378 -122.2464 148° Southeast 233 268 20,300 585 Climbing Oakland Center
Wed 02:07:37 PM 36.7786 -122.2039 150° Southeast 245 282 20,700 439 Climbing Oakland Center
Wed 02:08:39 PM 36.7189 -122.1589 149° Southeast 252 290 21,200 537 Climbing Oakland Center
Wed 02:09:40 PM 36.6564 -122.1178 152° Southeast 254 292 21,800 537 Climbing Oakland Center
Wed 02:10:42 PM 36.5975 -122.0717 148° Southeast 251 289 22,300 537 Climbing Oakland Center
Wed 02:11:43 PM 36.5375 -122.0272 149° Southeast 252 290 22,900 341 Climbing Oakland Center
Wed 02:12:45 PM 36.4761 -121.9831 150° Southeast 256 295 23,000 49 Climbing Oakland Center
Wed 02:13:46 PM 36.4108 -121.9339 149° Southeast 272 313 23,000  Level Oakland Center
Wed 02:14:48 PM 36.3311 -121.8717 148° Southeast 283 326 23,000  Level Oakland Center
Wed 02:15:49 PM 36.2611 -121.8219 150° Southeast 289 333 23,000  Level Oakland Center
Wed 02:16:51 PM 36.1983 -121.7742 148° Southeast 282 325 23,000  Level Oakland Center
Wed 02:17:52 PM 36.1358 -121.7186 144° Southeast 277 319 23,000  Level Oakland Center
Wed 02:18:54 PM 36.0806 -121.6522 136° Southeast 275 316 23,000  Level Oakland Center
Wed 02:19:56 PM 36.0092 -121.5800 141° Southeast 275 316 23,000  Level Oakland Center
Wed 02:20:57 PM 35.9508 -121.5208 141° Southeast 273 314 23,000  Level Oakland Center
Wed 02:21:59 PM 35.8919 -121.4614 141° Southeast 272 313 23,000  Level Oakland Center
Wed 02:23:00 PM 35.8342 -121.4006 140° Southeast 272 313 23,000  Level Oakland Center
Wed 02:24:02 PM 35.7761 -121.3411 140° Southeast 272 313 23,000  Level Oakland Center
Wed 02:25:04 PM 35.7181 -121.2825 141° Southeast 271 312 23,000  Level Oakland Center
Wed 02:26:05 PM 35.6603 -121.2219 140° Southeast 272 313 23,000  Level Oakland Center
Wed 02:27:07 PM 35.5892 -121.1511 141° Southeast 273 314 23,000  Level Oakland Center
Wed 02:28:09 PM 35.5322 -121.0908 139° Southeast 271 312 23,000  Level Oakland Center
Wed 02:29:10 PM 35.4744 -121.0328 141° Southeast 269 310 23,000  Level Oakland Center
Wed 02:30:12 PM 35.4169 -120.9756 141° Southeast 269 310 23,000  Level Oakland Center
Wed 02:31:14 PM 35.3600 -120.9178 140° Southeast 267 307 23,000  Level Oakland Center
Wed 02:31:43 PM 35.3364 -120.8981 146° Southeast 267 307 23,000  Level Los Angeles Center
Wed 02:32:45 PM 35.2689 -120.8250 139° Southeast 267 307 23,000  Level Los Angeles Center
Wed 02:33:47 PM 35.2122 -120.7681 141° Southeast 265 305 23,000  Level Los Angeles Center
Wed 02:34:49 PM 35.1547 -120.7106 141° Southeast 266 306 23,000  Level Los Angeles Center
Wed 02:35:51 PM 35.0972 -120.6528 141° Southeast 267 307 23,000 -288 Level Los Angeles Center
Wed 02:36:54 PM 35.0392 -120.5950 141° Southeast 268 308 22,400 -1,258 Descending Los Angeles Center
Wed 02:37:55 PM 34.9733 -120.5319 142° Southeast 290 334 20,400 -2,341 Descending Los Angeles Center
Wed 02:38:57 PM 34.8936 -120.4514 140° Southeast 308 354 17,600 -2,400 Descending Los Angeles Center
Wed 02:40:00 PM 34.8283 -120.3864 141° Southeast 302 348 15,400 -1,935 Descending Los Angeles Center
Wed 02:41:01 PM 34.7781 -120.3364 141° Southeast 292 336 13,600 -2,195 Descending Los Angeles Center
Wed 02:42:03 PM 34.7133 -120.2728 141° Southeast 295 339 10,900 -2,262 Descending Los Angeles Center
Wed 02:43:03 PM 34.6353 -120.1936 140° Southeast 283 326 9,000 -1,000 Descending Los Angeles Center
Wed 02:43:57 PM 34.5831 -120.1422 141° Southeast 261 300 9,000 -626 Level Los Angeles Center
Wed 02:44:58 PM 34.5353 -120.0819 134° Southeast 249 287 7,800 -1,180 Descending Los Angeles Center

Login

Don't have an account? Register now (free) for customized features, flight alerts, and more!